Terminal Aerodrome Forecast
Issued by NWS

Home | Current Version | Previous Version | Text Only | Print | Product List | Glossary On
Versions: 1 2 3 4 5 6 7 8 9 10 11 12 13 14 15 16 17 18 19 20 21 22 23 24 25 26 27 28 29 30 31 32 33 34 35 36 37 38 39 40 41 42
000
FTUS45 KBOU 230520
TAFBJC
TAF
KBJC 230520Z 2306/2406 08006KT P6SM SCT012 BKN035
      TEMPO 2306/2310 5SM BR BKN012
     FM231000 31004KT P6SM SCT015 BKN120
     FM231500 28006KT P6SM SCT080 SCT120
     FM232100 08007KT P6SM VCTS SCT070CB BKN120
     FM240100 32007KT P6SM VCSH BKN070 BKN120=

USA.gov is the U.S. government's official web portal to all federal, state and local government web resources and services.